Time;durP1;ratioP1;P1;durP2;ratioP2;P2;SDS_P1;SDS_P2;PMS_P1;PMS_P2;Temp;Humidity;BMP_temperature;BMP_pressure;BME280_temperature;BME280_humidity;BME280_pressure;Samples;Min_cycle;Max_cycle;Signal;HPM_P1;HPM_P2
2021/04/03 00:00:56;;;;;;;0.75;0.63;;;;;;;2.96;43.36;101215.25;5103677;28;20030;-64
2021/04/03 00:03:24;;;;;;;3.08;0.77;;;;;;;2.83;43.57;101216.50;5103528;28;20173;-64
2021/04/03 00:05:51;;;;;;;2.65;0.70;;;;;;;2.87;43.71;101213.25;5103455;28;20023;-64
2021/04/03 00:08:17;;;;;;;1.40;0.70;;;;;;;2.84;43.79;101214.00;5103609;28;20016;-64
2021/04/03 00:10:46;;;;;;;0.88;0.52;;;;;;;2.81;44.06;101197.63;5103616;28;20038;-64
2021/04/03 00:13:16;;;;;;;1.65;0.52;;;;;;;2.76;44.01;101220.56;5103658;28;20502;-64
2021/04/03 00:15:43;;;;;;;1.08;0.88;;;;;;;2.71;44.35;101222.94;5103585;28;20030;-64
2021/04/03 00:18:09;;;;;;;1.77;0.80;;;;;;;2.68;44.41;101229.63;5103445;28;20024;-64
2021/04/03 00:20:35;;;;;;;2.63;0.90;;;;;;;2.63;44.79;101219.22;5103342;28;20024;-65
2021/04/03 00:23:03;;;;;;;2.35;0.70;;;;;;;2.61;44.78;101213.16;5103695;28;20032;-64
2021/04/03 00:25:28;;;;;;;1.23;0.68;;;;;;;2.58;44.88;101221.59;5103438;28;20030;-64
2021/04/03 00:27:54;;;;;;;0.73;0.60;;;;;;;2.58;44.89;101200.22;5103259;28;20040;-65
2021/04/03 00:30:19;;;;;;;1.48;1.02;;;;;;;2.57;44.92;101217.28;5103300;28;20055;-65
2021/04/03 00:32:47;;;;;;;1.13;0.70;;;;;;;2.57;45.07;101229.25;5103488;28;20141;-64
2021/04/03 00:35:15;;;;;;;2.33;1.08;;;;;;;2.61;45.04;101208.00;5102871;28;20020;-64
2021/04/03 00:37:40;;;;;;;1.05;0.73;;;;;;;2.53;45.14;101228.25;5103470;28;20024;-63
2021/04/03 00:40:30;;;;;;;0.93;0.60;;;;;;;2.53;45.25;101233.38;5103195;28;20089;-64
2021/04/03 00:43:00;;;;;;;2.10;1.63;;;;;;;2.47;45.38;101234.03;5102986;28;20464;-64
2021/04/03 00:45:26;;;;;;;0.95;0.80;;;;;;;2.47;45.46;101249.41;5085066;28;20028;-64
2021/04/03 00:47:52;;;;;;;1.50;0.80;;;;;;;2.46;45.35;101229.69;5085081;28;20028;-65
2021/04/03 00:50:22;;;;;;;1.08;0.70;;;;;;;2.43;45.50;101224.44;5102915;28;20384;-65
2021/04/03 00:52:47;;;;;;;3.78;1.05;;;;;;;2.38;45.77;101222.53;5103246;28;20043;-64
2021/04/03 00:55:13;;;;;;;2.25;0.80;;;;;;;2.34;45.90;101216.41;5084861;28;20035;-64
2021/04/03 00:57:39;;;;;;;1.77;0.70;;;;;;;2.29;45.84;101218.78;5103181;28;20016;-65
2021/04/03 01:00:07;;;;;;;0.50;0.50;;;;;;;2.28;45.86;101224.75;5084636;28;20062;-65
2021/04/03 01:02:35;;;;;;;1.05;0.70;;;;;;;2.26;46.22;101233.16;5101740;28;20040;-64
2021/04/03 01:05:03;;;;;;;3.53;1.55;;;;;;;2.26;46.08;101240.84;5102560;28;20357;-65
2021/04/03 01:07:28;;;;;;;0.60;0.60;;;;;;;2.20;46.28;101237.25;5103116;28;20028;-64
2021/04/03 01:09:54;;;;;;;1.23;0.80;;;;;;;2.20;46.37;101232.13;5102697;28;20024;-64
2021/04/03 01:12:35;;;;;;;1.65;0.70;;;;;;;2.21;46.54;101235.56;5103101;28;20027;-64
2021/04/03 01:15:10;;;;;;;1.40;0.70;;;;;;;2.17;46.49;101243.94;5103262;28;20024;-64
2021/04/03 01:18:00;;;;;;;2.63;0.80;;;;;;;2.16;46.61;101253.31;5103242;28;20031;-64
2021/04/03 01:20:37;;;;;;;1.73;0.75;;;;;;;2.11;46.82;101247.13;5102742;28;20025;-64
2021/04/03 01:23:44;;;;;;;2.75;0.80;;;;;;;2.09;46.99;101243.63;5102743;28;20031;-65
2021/04/03 01:26:46;;;;;;;1.40;0.70;;;;;;;2.07;47.14;101246.13;5020013;28;20128;-63
2021/04/03 01:29:49;;;;;;;1.15;0.90;;;;;;;2.03;47.11;101244.25;5019998;28;20109;-64
2021/04/03 01:32:17;;;;;;;0.90;0.60;;;;;;;2.03;47.04;101254.50;5017751;28;20036;-64
2021/04/03 01:34:45;;;;;;;3.80;0.90;;;;;;;2.00;47.31;101253.53;5043408;28;20021;-64
2021/04/03 01:37:17;;;;;;;1.88;0.60;;;;;;;1.97;47.40;101247.44;5043662;28;20079;-64
2021/04/03 01:39:45;;;;;;;2.28;0.93;;;;;;;1.97;47.26;101249.13;5043583;28;20030;-65
2021/04/03 01:42:14;;;;;;;1.02;0.80;;;;;;;1.97;47.41;101250.00;5043575;28;20607;-64
2021/04/03 01:44:48;;;;;;;3.05;1.00;;;;;;;1.94;47.47;101257.56;5043379;28;20045;-64
2021/04/03 01:47:15;;;;;;;2.42;0.60;;;;;;;1.94;47.52;101264.38;5043591;28;20571;-64
2021/04/03 01:49:43;;;;;;;1.52;0.60;;;;;;;1.90;47.51;101263.34;5042804;28;20033;-65
2021/04/03 01:52:09;;;;;;;1.80;0.90;;;;;;;1.87;47.81;101239.34;5026721;28;20027;-64
2021/04/03 01:54:34;;;;;;;0.77;0.70;;;;;;;1.85;47.82;101259.75;5043320;28;20056;-64
2021/04/03 01:57:01;;;;;;;0.70;0.60;;;;;;;1.84;47.87;101252.88;5042926;28;20461;-65
2021/04/03 01:59:26;;;;;;;1.13;0.73;;;;;;;1.85;47.78;101257.19;5043316;28;20104;-64
2021/04/03 02:01:54;;;;;;;0.80;0.60;;;;;;;1.83;47.80;101253.69;5046860;28;20081;-65
2021/04/03 02:04:21;;;;;;;2.50;0.80;;;;;;;1.79;48.01;101249.25;5103092;28;20028;-64
2021/04/03 02:06:47;;;;;;;1.42;0.60;;;;;;;1.85;47.85;101239.28;5106282;28;20111;-65
2021/04/03 02:09:15;;;;;;;1.33;0.63;;;;;;;1.83;47.90;101244.34;5105829;28;20012;-64
2021/04/03 02:11:46;;;;;;;1.90;0.63;;;;;;;1.83;48.04;101254.56;5106147;28;20020;-64
2021/04/03 02:14:12;;;;;;;1.92;0.75;;;;;;;1.81;48.02;101252.75;5106001;28;20066;-65
2021/04/03 02:16:39;;;;;;;2.22;0.88;;;;;;;1.79;48.03;101249.25;5105979;28;20022;-64
2021/04/03 02:19:07;;;;;;;2.13;0.73;;;;;;;1.75;48.26;101255.03;5105489;28;20536;-64
2021/04/03 02:21:34;;;;;;;1.85;0.98;;;;;;;1.73;48.35;101255.88;5106011;28;20024;-64
2021/04/03 02:24:00;;;;;;;1.67;0.60;;;;;;;1.73;48.15;101260.09;5105901;28;20043;-64
2021/04/03 02:26:29;;;;;;;2.17;0.80;;;;;;;1.76;48.43;101264.50;5105288;28;20048;-64
2021/04/03 02:28:54;;;;;;;3.15;0.60;;;;;;;1.68;48.38;101259.91;5105608;28;20452;-64
2021/04/03 02:31:19;;;;;;;1.77;0.68;;;;;;;1.70;48.39;101272.78;5105591;28;20035;-65
2021/04/03 02:33:45;;;;;;;1.85;0.70;;;;;;;1.69;48.39;101276.16;5105618;28;20011;-63
2021/04/03 02:36:10;;;;;;;1.75;0.70;;;;;;;1.66;48.53;101276.88;5105592;28;20020;-64
2021/04/03 02:38:36;;;;;;;1.20;0.60;;;;;;;1.66;48.48;101271.75;5105297;28;20028;-64
2021/04/03 02:41:05;;;;;;;2.88;0.70;;;;;;;1.68;48.75;101280.41;5105455;28;20032;-64
2021/04/03 02:43:46;;;;;;;0.60;0.45;;;;;;;1.65;48.58;101277.72;5105497;28;20065;-64
2021/04/03 02:46:18;;;;;;;2.08;0.90;;;;;;;1.67;48.65;101282.91;5105429;28;20487;-64
2021/04/03 02:48:47;;;;;;;;;;;;;;;1.68;48.62;101282.06;5105684;28;20451;-63
2021/04/03 02:51:15;;;;;;;2.13;0.93;;;;;;;1.61;48.81;101283.53;5104947;28;19962;-64
2021/04/03 02:53:41;;;;;;;0.95;0.50;;;;;;;1.56;48.92;101280.75;5105002;28;20161;-64
2021/04/03 02:56:10;;;;;;;1.38;0.80;;;;;;;1.59;48.96;101283.44;5105373;28;20027;-65
2021/04/03 02:58:36;;;;;;;2.25;0.60;;;;;;;1.60;48.82;101286.88;5104824;28;20024;-64
2021/04/03 03:01:07;;;;;;;0.68;0.50;;;;;;;1.55;48.93;101289.22;5104729;28;20016;-64
2021/04/03 03:03:35;;;;;;;1.27;0.77;;;;;;;1.52;49.03;101283.13;5104912;28;20388;-64
2021/04/03 03:06:01;;;;;;;3.17;0.80;;;;;;;1.53;49.21;101287.44;5104684;28;20056;-64
2021/04/03 03:08:28;;;;;;;1.10;0.82;;;;;;;1.45;49.08;101282.84;5104696;28;20020;-65
2021/04/03 03:10:55;;;;;;;3.15;0.93;;;;;;;1.47;49.24;101285.50;5104949;28;20340;-65
2021/04/03 03:13:21;;;;;;;2.28;0.80;;;;;;;1.44;49.36;101286.22;5104855;28;20020;-65
2021/04/03 03:15:47;;;;;;;2.35;0.70;;;;;;;1.46;49.16;101278.59;5104639;28;20082;-64
2021/04/03 03:18:14;;;;;;;1.83;0.60;;;;;;;1.47;49.21;101280.38;5086456;28;20026;-65
2021/04/03 03:20:39;;;;;;;2.58;0.80;;;;;;;1.43;49.27;101284.47;5104303;28;20024;-65
2021/04/03 03:23:04;;;;;;;0.60;0.60;;;;;;;1.43;49.34;101292.16;5104537;28;20024;-64
2021/04/03 03:25:30;;;;;;;4.75;0.90;;;;;;;1.41;49.48;101292.88;5104538;28;20027;-64
2021/04/03 03:27:56;;;;;;;1.88;0.70;;;;;;;1.42;49.51;101303.19;5104505;28;20040;-64
2021/04/03 03:30:24;;;;;;;2.45;0.70;;;;;;;1.42;49.61;101307.44;5104313;28;20024;-64
2021/04/03 03:32:49;;;;;;;1.98;0.70;;;;;;;1.39;49.65;101308.16;5104762;28;20043;-64
2021/04/03 03:35:16;;;;;;;0.77;0.60;;;;;;;1.39;49.61;101305.59;5104120;28;20016;-64
2021/04/03 03:37:44;;;;;;;2.05;0.70;;;;;;;1.37;49.64;101317.47;5104173;28;20024;-65
2021/04/03 03:40:15;;;;;;;0.90;0.50;;;;;;;1.37;49.65;101304.69;5104090;28;20035;-65
2021/04/03 03:42:41;;;;;;;0.75;0.60;;;;;;;1.36;49.65;101306.34;5104057;28;20026;-64
2021/04/03 03:45:09;;;;;;;0.90;0.68;;;;;;;1.40;49.57;101314.16;5104042;28;20020;-64
2021/04/03 03:47:34;;;;;;;1.00;0.60;;;;;;;1.38;49.81;101308.09;5104261;28;20111;-64
2021/04/03 03:49:59;;;;;;;1.27;0.70;;;;;;;1.35;49.70;101313.97;5103608;28;20533;-64
2021/04/03 03:52:25;;;;;;;1.35;0.60;;;;;;;1.36;49.74;101318.25;5103615;28;20031;-64
2021/04/03 03:54:50;;;;;;;5.35;1.05;;;;;;;1.35;49.87;101316.53;5104050;28;20024;-65
2021/04/03 03:57:16;;;;;;;0.73;0.60;;;;;;;1.33;49.71;101319.00;5103966;28;20031;-65
2021/04/03 03:59:41;;;;;;;3.60;1.55;;;;;;;1.33;49.91;101313.00;5103688;28;20024;-64
2021/04/03 04:02:06;;;;;;;2.35;0.90;;;;;;;1.32;49.85;101311.28;5104042;28;20032;-65
2021/04/03 04:04:32;;;;;;;0.63;0.50;;;;;;;1.26;49.91;101317.00;5103413;28;20054;-65
2021/04/03 04:06:57;;;;;;;0.98;0.77;;;;;;;1.26;49.76;101321.22;5103911;28;20330;-65
2021/04/03 04:09:23;;;;;;;0.90;0.80;;;;;;;1.26;50.04;101316.13;5103588;28;20020;-64
2021/04/03 04:11:48;;;;;;;3.05;0.65;;;;;;;1.26;50.05;101326.34;5103923;28;20020;-64
2021/04/03 04:14:13;;;;;;;1.30;0.70;;;;;;;1.18;50.14;101319.19;5103548;28;20073;-65
2021/04/03 04:16:39;;;;;;;2.08;0.70;;;;;;;1.21;50.18;101321.03;5103641;28;20039;-64
2021/04/03 04:19:05;;;;;;;3.90;0.75;;;;;;;1.18;50.27;101308.97;5103337;28;20032;-64
2021/04/03 04:21:30;;;;;;;2.47;0.80;;;;;;;1.16;50.40;101320.81;5103459;28;20035;-65
2021/04/03 04:23:56;;;;;;;1.88;0.70;;;;;;;1.14;50.24;101317.31;5103448;28;20020;-66
2021/04/03 04:26:21;;;;;;;2.28;0.90;;;;;;;1.17;50.42;101319.13;5103329;28;20058;-63
2021/04/03 04:28:47;;;;;;;0.82;0.60;;;;;;;1.18;50.36;101328.56;5103531;28;20126;-64
2021/04/03 04:31:13;;;;;;;1.55;0.80;;;;;;;1.17;50.39;101324.25;5103353;28;20024;-64
2021/04/03 04:33:39;;;;;;;2.38;1.00;;;;;;;1.18;50.44;101339.66;5103534;28;20032;-64
2021/04/03 04:36:05;;;;;;;2.92;0.88;;;;;;;1.16;50.77;101331.06;5103180;28;20039;-64
2021/04/03 04:38:30;;;;;;;1.23;0.80;;;;;;;1.18;50.67;101337.09;5103392;28;20024;-64
2021/04/03 04:40:55;;;;;;;1.70;0.90;;;;;;;1.15;50.56;101334.41;5103304;28;20332;-64
2021/04/03 04:43:21;;;;;;;0.95;0.77;;;;;;;1.21;50.64;101339.81;5103295;28;20052;-64
2021/04/03 04:45:47;;;;;;;1.00;0.85;;;;;;;1.38;50.82;101346.47;5103286;28;20019;-64
2021/04/03 04:48:13;;;;;;;6.88;0.90;;;;;;;1.56;50.67;101337.06;5103423;28;20423;-64
2021/04/03 04:50:38;;;;;;;3.88;1.15;;;;;;;1.77;50.27;101338.81;5103005;28;20028;-64
2021/04/03 04:53:06;;;;;;;0.75;0.57;;;;;;;1.97;49.78;101328.53;5103351;28;20020;-64
2021/04/03 04:55:31;;;;;;;9.98;1.08;;;;;;;2.21;49.93;101330.34;5103051;28;20484;-64
2021/04/03 04:57:57;;;;;;;3.33;0.85;;;;;;;2.45;49.29;101327.91;5103060;28;20034;-64
2021/04/03 05:00:22;;;;;;;2.22;0.90;;;;;;;2.67;48.63;101328.75;5103176;28;20043;-63
2021/04/03 05:02:48;;;;;;;6.03;0.82;;;;;;;2.83;47.96;101334.47;5103203;28;20046;-63
2021/04/03 05:05:13;;;;;;;1.88;0.98;;;;;;;2.94;47.65;101330.63;5104549;28;20028;-64
2021/04/03 05:07:38;;;;;;;1.77;0.80;;;;;;;3.15;47.54;101337.38;5107317;28;20106;-64
2021/04/03 05:10:04;;;;;;;3.70;0.90;;;;;;;3.37;46.86;101347.59;5106775;28;20019;-64
2021/04/03 05:12:30;;;;;;;4.90;1.00;;;;;;;3.58;46.86;101350.03;5107056;28;20123;-64
2021/04/03 05:14:55;;;;;;;1.08;0.57;;;;;;;3.89;46.76;101356.25;5107033;28;20030;-65
2021/04/03 05:17:21;;;;;;;3.00;0.90;;;;;;;4.18;46.25;101350.38;5107153;28;20024;-65
2021/04/03 05:19:47;;;;;;;1.75;0.95;;;;;;;4.41;46.05;101347.69;5106567;28;20028;-65
2021/04/03 05:22:12;;;;;;;1.25;0.73;;;;;;;4.67;44.63;101351.06;5107081;28;20472;-64
2021/04/03 05:24:37;;;;;;;2.95;0.90;;;;;;;4.72;44.20;101353.78;5106959;28;20027;-64
2021/04/03 05:27:03;;;;;;;2.17;0.80;;;;;;;4.82;44.04;101350.66;5106690;28;20131;-64
2021/04/03 05:29:29;;;;;;;1.08;0.52;;;;;;;4.99;43.62;101352.00;5106747;28;20020;-63
2021/04/03 05:31:54;;;;;;;1.88;0.88;;;;;;;5.25;44.07;101364.78;5106850;28;20088;-64
2021/04/03 05:34:19;;;;;;;3.00;1.00;;;;;;;5.60;43.87;101357.19;5106479;28;20028;-64
2021/04/03 05:36:45;;;;;;;0.95;0.70;;;;;;;6.05;43.32;101360.09;5106520;28;20020;-65
2021/04/03 05:39:10;;;;;;;2.50;0.70;;;;;;;6.40;42.54;101357.53;5071757;28;20017;-65
2021/04/03 05:41:36;;;;;;;2.05;0.93;;;;;;;6.58;41.21;101353.66;5088617;28;20024;-65
2021/04/03 05:44:03;;;;;;;1.02;0.70;;;;;;;6.40;40.13;101359.25;5106522;28;20384;-65
2021/04/03 05:46:28;;;;;;;1.27;0.90;;;;;;;6.22;40.18;101357.06;5106580;28;20026;-65
2021/04/03 05:48:54;;;;;;;1.23;0.70;;;;;;;6.12;39.83;101356.84;5106528;28;20071;-65
2021/04/03 05:51:20;;;;;;;1.05;0.80;;;;;;;6.10;40.61;101357.66;5106429;28;20082;-66
2021/04/03 05:53:49;;;;;;;2.65;0.75;;;;;;;6.32;40.98;101359.94;5106511;28;20419;-65
2021/04/03 05:56:14;;;;;;;1.50;0.70;;;;;;;6.79;41.06;101370.44;5106395;28;20054;-65
2021/04/03 05:58:40;;;;;;;1.30;0.70;;;;;;;7.21;39.87;101361.03;5106386;28;20084;-66
2021/04/03 06:01:06;;;;;;;2.03;0.98;;;;;;;7.46;38.74;101358.09;5106355;28;20027;-64
2021/04/03 06:03:33;;;;;;;0.73;0.60;;;;;;;7.53;37.81;101366.00;5106343;28;20020;-65
2021/04/03 06:05:58;;;;;;;1.10;0.73;;;;;;;7.23;37.41;101361.94;5106044;28;20027;-65
2021/04/03 06:08:28;;;;;;;1.05;0.95;;;;;;;7.26;37.74;101367.19;5106237;28;20488;-65
2021/04/03 06:11:12;;;;;;;0.82;0.70;;;;;;;7.41;37.96;101353.69;5106446;28;20061;-65
2021/04/03 06:13:39;;;;;;;5.18;0.90;;;;;;;7.57;37.71;101356.59;5106136;28;20031;-66
2021/04/03 06:16:46;;;;;;;1.60;0.80;;;;;;;7.90;37.38;101367.53;5105922;28;20028;-65
2021/04/03 06:19:15;;;;;;;1.20;0.60;;;;;;;8.39;37.72;101364.91;5094963;28;20417;-64
2021/04/03 06:21:43;;;;;;;3.60;0.65;;;;;;;8.84;36.85;101362.16;5106195;28;20088;-66
2021/04/03 06:24:19;;;;;;;0.88;0.57;;;;;;;9.30;36.18;101367.09;5106134;28;20024;-67
2021/04/03 06:27:12;;;;;;;1.63;0.70;;;;;;;9.92;34.72;101377.25;5105911;28;20052;-67
2021/04/03 06:29:46;;;;;;;1.17;0.50;;;;;;;9.70;33.61;101370.09;5102551;28;20092;-66
2021/04/03 06:32:40;;;;;;;2.42;0.73;;;;;;;9.68;33.66;101372.69;5105778;28;20388;-67
2021/04/03 06:35:06;;;;;;;2.03;0.60;;;;;;;9.78;34.25;101371.06;5097957;28;20032;-67
2021/04/03 06:37:34;;;;;;;1.60;0.82;;;;;;;10.26;34.35;101383.63;5105799;28;20069;-66
2021/04/03 06:40:04;;;;;;;2.42;0.70;;;;;;;10.52;31.96;101373.50;5105582;28;20042;-66
2021/04/03 06:42:35;;;;;;;1.65;0.73;;;;;;;10.35;32.17;101388.03;5105997;28;20024;-67
2021/04/03 06:45:29;;;;;;;1.08;0.73;;;;;;;10.25;32.01;101392.28;5105846;28;20092;-67
2021/04/03 06:48:01;;;;;;;0.77;0.50;;;;;;;10.35;32.66;101391.47;5105665;28;20024;-67
2021/04/03 06:50:28;;;;;;;1.52;0.70;;;;;;;10.17;31.57;101392.22;5105204;28;20167;-66
2021/04/03 06:52:54;;;;;;;0.80;0.60;;;;;;;10.01;32.05;101405.03;5105762;28;20020;-67
2021/04/03 06:55:22;;;;;;;1.73;0.70;;;;;;;9.98;31.85;101404.13;5105423;28;20048;-67
2021/04/03 06:57:48;;;;;;;1.55;0.60;;;;;;;9.90;32.18;101398.88;5105681;28;20123;-68
2021/04/03 07:00:17;;;;;;;3.30;0.68;;;;;;;9.92;31.87;101411.00;5105500;28;20035;-68
2021/04/03 07:02:59;;;;;;;2.33;0.65;;;;;;;9.99;32.13;101411.94;5105294;28;20043;-67
2021/04/03 07:05:26;;;;;;;0.90;0.63;;;;;;;10.17;31.36;101408.63;5105042;28;20091;-66
2021/04/03 07:07:55;;;;;;;1.10;0.93;;;;;;;9.92;31.40;101417.88;5105301;28;20032;-68
2021/04/03 07:10:21;;;;;;;2.05;0.60;;;;;;;10.03;31.58;101425.81;5104820;28;20488;-67
2021/04/03 07:12:49;;;;;;;1.00;0.60;;;;;;;10.31;31.02;101426.06;5105118;28;20035;-68
2021/04/03 07:15:14;;;;;;;1.90;0.77;;;;;;;10.19;30.49;101425.97;5105031;28;20020;-67
2021/04/03 07:17:44;;;;;;;1.92;0.70;;;;;;;10.21;31.30;101432.88;5104931;28;20476;-68
2021/04/03 07:20:16;;;;;;;1.23;0.60;;;;;;;10.40;31.41;101431.34;5104529;28;20035;-66
2021/04/03 07:22:45;;;;;;;0.73;0.63;;;;;;;10.52;31.04;101429.75;5104775;28;20051;-63
2021/04/03 07:25:12;;;;;;;3.58;0.85;;;;;;;10.46;30.71;101434.84;5104655;28;20028;-64
2021/04/03 07:27:41;;;;;;;2.17;0.70;;;;;;;10.36;30.73;101429.59;5103825;28;20130;-64
2021/04/03 07:30:07;;;;;;;1.33;0.70;;;;;;;10.43;30.60;101446.09;5104456;28;20031;-64
2021/04/03 07:32:38;;;;;;;0.95;0.50;;;;;;;10.17;30.34;101438.91;5104452;28;20028;-63
2021/04/03 07:35:23;;;;;;;0.98;0.70;;;;;;;9.91;31.10;101442.97;5104110;28;20085;-70
2021/04/03 07:37:53;;;;;;;1.30;0.77;;;;;;;10.20;31.16;101444.13;5104573;28;20030;-65
2021/04/03 07:40:25;;;;;;;1.27;0.60;;;;;;;10.12;30.83;101449.25;5086160;28;20059;-64
2021/04/03 07:42:51;;;;;;;1.38;0.75;;;;;;;10.21;30.99;101451.06;5086265;28;20020;-65
2021/04/03 07:45:40;;;;;;;3.03;1.08;;;;;;;10.22;30.91;101450.22;5086383;28;20028;-68
2021/04/03 07:48:11;;;;;;;0.73;0.50;;;;;;;10.51;30.71;101449.63;5104560;28;20026;-69
2021/04/03 07:50:40;;;;;;;3.47;0.70;;;;;;;10.38;30.42;101448.63;5104182;28;20016;-69
2021/04/03 07:53:06;;;;;;;0.80;0.55;;;;;;;10.19;30.04;101415.56;5104629;28;20118;-69
2021/04/03 07:55:38;;;;;;;1.65;0.60;;;;;;;10.17;29.98;101444.97;5104226;28;20046;-66
2021/04/03 07:58:18;;;;;;;1.40;0.82;;;;;;;10.04;30.47;101453.47;5104145;28;20034;-69
2021/04/03 08:00:46;;;;;;;1.27;0.70;;;;;;;10.09;30.27;101450.94;5103903;28;20028;-69
2021/04/03 08:03:12;;;;;;;2.88;0.68;;;;;;;10.00;29.91;101452.56;5104264;28;20464;-69
2021/04/03 08:05:38;;;;;;;1.70;0.70;;;;;;;9.91;30.37;101461.13;5103911;28;20027;-68
2021/04/03 08:08:05;;;;;;;0.70;0.60;;;;;;;10.11;29.87;101450.09;5104273;28;20028;-67
2021/04/03 08:10:31;;;;;;;3.15;0.60;;;;;;;10.14;29.65;101455.31;5085582;28;20090;-68
2021/04/03 08:12:56;;;;;;;5.53;0.90;;;;;;;10.01;29.67;101451.75;5104072;28;20016;-70
2021/04/03 08:15:22;;;;;;;0.88;0.63;;;;;;;9.96;29.80;101458.59;5103892;28;20028;-70
2021/04/03 08:17:52;;;;;;;0.93;0.75;;;;;;;9.88;29.39;101453.31;5104086;28;20024;-69
2021/04/03 08:20:19;;;;;;;2.55;0.80;;;;;;;9.69;29.65;101465.19;5103293;28;20488;-69
2021/04/03 08:23:00;;;;;;;2.38;0.65;;;;;;;9.73;29.72;101447.97;5104048;28;20038;-67
2021/04/03 08:25:26;;;;;;;1.33;1.00;;;;;;;10.00;28.50;101462.09;5103950;28;20065;-68
2021/04/03 08:27:51;;;;;;;14.18;1.15;;;;;;;10.00;29.33;101456.91;5103864;28;20055;-64
2021/04/03 08:30:23;;;;;;;1.48;0.60;;;;;;;10.11;28.66;101457.88;5103674;28;20030;-66
2021/04/03 08:33:13;;;;;;;1.10;0.70;;;;;;;10.26;28.94;101459.75;5103997;28;20251;-65
2021/04/03 08:35:41;;;;;;;1.42;0.50;;;;;;;10.63;28.29;101464.47;5092991;28;20032;-64
2021/04/03 08:38:15;;;;;;;1.02;0.82;;;;;;;10.62;27.63;101459.25;5103847;28;20035;-63
2021/04/03 08:40:42;;;;;;;2.28;0.60;;;;;;;10.55;28.34;101466.13;5103690;28;20024;-69
2021/04/03 08:43:14;;;;;;;1.17;0.50;;;;;;;10.89;28.37;101461.19;5103628;28;20046;-65
2021/04/03 08:45:40;;;;;;;2.17;0.60;;;;;;;11.38;28.24;101446.75;5103710;28;20028;-65
2021/04/03 08:48:10;;;;;;;1.25;0.50;;;;;;;11.96;27.01;101446.97;5103359;28;20023;-65
2021/04/03 08:50:37;;;;;;;3.00;1.73;;;;;;;11.83;26.78;101448.69;5103283;28;20032;-64
2021/04/03 08:53:06;;;;;;;3.03;0.50;;;;;;;11.95;26.78;101450.44;5103771;28;20103;-68
2021/04/03 08:55:33;;;;;;;2.72;0.60;;;;;;;12.27;26.32;101433.16;5103509;28;20025;-68
2021/04/03 08:58:00;;;;;;;0.80;0.50;;;;;;;12.12;25.94;101440.09;5103495;28;20020;-65
2021/04/03 09:00:26;;;;;;;0.50;0.50;;;;;;;11.75;26.14;101430.44;5085374;28;20483;-70
2021/04/03 09:02:53;;;;;;;1.17;0.70;;;;;;;11.28;26.69;101432.84;5103400;28;20027;-70
2021/04/03 09:05:20;;;;;;;0.75;0.55;;;;;;;10.96;27.23;101466.44;5102921;28;20024;-70
2021/04/03 09:07:45;;;;;;;0.85;0.55;;;;;;;10.67;27.97;101444.59;5103337;28;20071;-69
2021/04/03 09:10:25;;;;;;;2.33;0.65;;;;;;;11.12;27.80;101454.41;5103324;28;20480;-71
2021/04/03 09:12:52;;;;;;;1.83;0.60;;;;;;;11.70;27.52;101446.88;5085208;28;20020;-72
2021/04/03 09:15:30;;;;;;;1.02;0.57;;;;;;;12.23;26.85;101449.66;5102988;28;20291;-69
2021/04/03 09:17:57;;;;;;;1.77;0.57;;;;;;;12.76;26.93;101450.53;5103290;28;20107;-68
2021/04/03 09:20:25;;;;;;;3.55;0.68;;;;;;;13.31;26.11;101447.84;5102997;28;20062;-71
2021/04/03 09:23:03;;;;;;;1.95;0.70;;;;;;;14.17;25.06;101455.28;5103413;28;20028;-66
2021/04/03 09:25:30;;;;;;;2.17;0.60;;;;;;;14.62;23.99;101447.09;5084835;28;20031;-63
2021/04/03 09:27:57;;;;;;;2.40;0.65;;;;;;;13.91;23.49;101448.50;5102905;28;20044;-65
2021/04/03 09:30:30;;;;;;;1.42;0.75;;;;;;;12.93;24.95;101435.75;5103050;28;20247;-65
2021/04/03 09:32:56;;;;;;;1.42;0.80;;;;;;;12.25;25.46;101437.53;5103152;28;20539;-65
2021/04/03 09:35:24;;;;;;;1.33;0.60;;;;;;;11.56;26.64;101437.31;5102697;28;20024;-65
2021/04/03 09:38:03;;;;;;;1.13;0.70;;;;;;;11.19;27.23;101434.53;5084769;28;20028;-65
2021/04/03 09:40:42;;;;;;;1.80;0.60;;;;;;;10.79;27.30;101412.63;5103135;28;20097;-63
2021/04/03 09:43:08;;;;;;;1.67;0.68;;;;;;;10.34;27.40;101439.06;5102767;28;20023;-64
2021/04/03 09:45:33;;;;;;;1.30;0.75;;;;;;;9.96;27.75;101434.38;5103024;28;20028;-65
2021/04/03 09:47:59;;;;;;;2.47;0.70;;;;;;;10.07;28.15;101439.66;5084849;28;20421;-64
2021/04/03 09:50:26;;;;;;;1.40;0.70;;;;;;;10.51;27.89;101441.84;5103010;28;20081;-65
2021/04/03 09:52:52;;;;;;;1.92;0.55;;;;;;;10.76;27.19;101444.66;5088391;28;20099;-65
2021/04/03 09:55:18;;;;;;;1.63;0.60;;;;;;;10.62;27.01;101436.72;5087942;28;20051;-65
2021/04/03 09:57:43;;;;;;;1.75;0.60;;;;;;;10.54;27.46;101423.69;5106217;28;20034;-65
2021/04/03 10:00:09;;;;;;;3.58;0.60;;;;;;;10.60;27.27;101437.59;5106104;28;20023;-64
2021/04/03 10:02:35;;;;;;;1.60;0.68;;;;;;;10.87;27.21;101438.66;5106433;28;20020;-64
2021/04/03 10:05:00;;;;;;;1.55;0.70;;;;;;;11.37;26.65;101437.19;5106284;28;20747;-65
2021/04/03 10:07:25;;;;;;;2.08;0.57;;;;;;;11.95;26.54;101431.38;5106344;28;20048;-65
2021/04/03 10:09:51;;;;;;;1.15;0.57;;;;;;;12.26;25.55;101415.81;5105942;28;20042;-66
2021/04/03 10:12:16;;;;;;;4.63;0.70;;;;;;;11.76;25.46;101415.69;5106192;28;20027;-64
2021/04/03 10:14:42;;;;;;;1.30;0.50;;;;;;;10.97;25.76;101431.78;5105958;28;20020;-64
2021/04/03 10:17:07;;;;;;;1.85;0.60;;;;;;;10.16;26.96;101430.25;5106092;28;20024;-65
2021/04/03 10:19:32;;;;;;;1.58;0.60;;;;;;;9.73;27.71;101433.25;5105816;28;20052;-65
2021/04/03 10:21:58;;;;;;;1.45;0.77;;;;;;;9.38;28.50;101441.47;5105993;28;20522;-66
2021/04/03 10:24:23;;;;;;;1.40;0.70;;;;;;;9.20;28.48;101432.56;5106009;28;20099;-65
2021/04/03 10:26:48;;;;;;;1.20;0.70;;;;;;;9.02;28.78;101431.50;5105759;28;20175;-66
2021/04/03 10:29:14;;;;;;;1.55;0.45;;;;;;;9.01;28.95;101442.69;5106082;28;20030;-65
2021/04/03 10:31:40;;;;;;;1.63;0.60;;;;;;;9.27;29.36;101430.94;5105790;28;20099;-66
2021/04/03 10:34:05;;;;;;;2.60;1.00;;;;;;;9.67;28.35;101441.84;5105836;28;20398;-65
2021/04/03 10:36:30;;;;;;;4.97;0.77;;;;;;;9.95;28.16;101435.22;5105496;28;20051;-65
2021/04/03 10:38:56;;;;;;;2.28;0.70;;;;;;;9.89;28.05;101433.41;5105412;28;20024;-66
2021/04/03 10:41:21;;;;;;;2.33;1.00;;;;;;;9.88;28.14;101439.47;5105381;28;20012;-67
2021/04/03 10:43:47;;;;;;;1.50;0.80;;;;;;;10.20;27.89;101438.06;5105797;28;20488;-71
2021/04/03 10:46:13;;;;;;;1.08;0.70;;;;;;;10.21;27.40;101427.69;5105912;28;20444;-67
2021/04/03 10:48:38;;;;;;;3.28;0.70;;;;;;;10.14;27.60;101431.94;5105509;28;20024;-63
2021/04/03 10:51:05;;;;;;;7.03;0.85;;;;;;;10.50;27.45;101441.81;5105376;28;20039;-66
2021/04/03 10:53:31;;;;;;;1.50;0.70;;;;;;;10.53;26.94;101440.13;5105485;28;20054;-64
2021/04/03 10:55:56;;;;;;;2.05;0.95;;;;;;;10.37;27.28;101427.84;5105164;28;20032;-64
2021/04/03 10:58:22;;;;;;;2.88;1.10;;;;;;;10.87;27.08;101436.06;5105312;28;20465;-68
2021/04/03 11:00:47;;;;;;;2.28;0.90;;;;;;;11.38;26.33;101417.28;5105263;28;20024;-68
2021/04/03 11:03:12;;;;;;;2.83;0.73;;;;;;;11.28;26.43;101421.56;5103879;28;20087;-65
2021/04/03 11:05:38;;;;;;;1.98;0.70;;;;;;;11.11;26.35;101427.56;5104773;28;20024;-65
2021/04/03 11:08:04;;;;;;;2.10;0.88;;;;;;;11.03;26.71;101427.50;5105103;28;20027;-71
2021/04/03 11:10:29;;;;;;;3.15;0.80;;;;;;;11.53;26.88;101419.09;5104657;28;20027;-70
2021/04/03 11:12:55;;;;;;;1.75;0.80;;;;;;;12.29;26.34;101413.22;5104847;28;20024;-69
2021/04/03 11:15:20;;;;;;;2.00;0.63;;;;;;;12.98;25.26;101416.66;5104553;28;20035;-67
2021/04/03 11:17:46;;;;;;;2.10;0.60;;;;;;;13.14;24.23;101414.88;5104672;28;20028;-68
2021/04/03 11:20:12;;;;;;;1.25;0.60;;;;;;;13.09;24.29;101414.00;5104281;28;20020;-69
2021/04/03 11:22:38;;;;;;;2.50;1.27;;;;;;;13.26;24.17;101407.84;5104370;28;20054;-69
2021/04/03 11:25:07;;;;;;;1.63;0.60;;;;;;;13.27;24.13;101409.59;5104174;28;20079;-69
2021/04/03 11:27:33;;;;;;;1.55;0.68;;;;;;;13.54;23.91;101407.78;5104062;28;20099;-68
2021/04/03 11:30:12;;;;;;;1.33;0.60;;;;;;;13.38;23.76;101418.25;5104333;28;20024;-70
2021/04/03 11:32:38;;;;;;;1.92;1.35;;;;;;;12.41;24.75;101406.28;5104065;28;20432;-71
2021/04/03 11:35:04;;;;;;;0.70;0.52;;;;;;;11.36;25.58;101393.00;5103243;28;20515;-70
2021/04/03 11:37:29;;;;;;;2.50;0.77;;;;;;;10.72;26.76;101398.72;5104020;28;20050;-70